createdAt,value
2022-12-16T00:00:15.916Z,1.01
2022-12-16T00:02:43.421Z,1.01
2022-12-16T00:05:10.663Z,1.01
2022-12-16T00:07:37.977Z,1.01
2022-12-16T00:10:06.861Z,0.99
2022-12-16T00:12:34.094Z,0.97
2022-12-16T00:15:01.536Z,0.99
2022-12-16T00:17:28.736Z,1.01
2022-12-16T00:19:55.970Z,0.99
2022-12-16T00:22:23.930Z,1.01
2022-12-16T00:24:51.182Z,1.00
2022-12-16T00:27:19.368Z,0.98
2022-12-16T00:29:46.500Z,0.95
2022-12-16T00:32:13.652Z,0.86
2022-12-16T00:34:40.849Z,0.90
2022-12-16T00:37:08.004Z,0.72
2022-12-16T00:39:35.320Z,0.68
2022-12-16T00:42:02.511Z,0.64
2022-12-16T00:44:29.690Z,0.65
2022-12-16T00:46:56.902Z,0.60
2022-12-16T00:49:24.092Z,0.55
2022-12-16T00:51:51.205Z,0.58
2022-12-16T00:54:18.489Z,0.55
2022-12-16T00:56:45.804Z,0.51
2022-12-16T00:59:13.037Z,0.49
2022-12-16T01:01:40.497Z,0.51
2022-12-16T01:04:07.779Z,0.49
2022-12-16T01:06:35.557Z,0.46
2022-12-16T01:09:03.867Z,0.45
2022-12-16T01:11:31.308Z,0.45
2022-12-16T01:13:59.540Z,0.47
2022-12-16T01:16:26.760Z,0.46
2022-12-16T01:18:56.247Z,0.48
2022-12-16T01:21:23.626Z,0.51
2022-12-16T01:23:50.981Z,0.46
2022-12-16T01:26:18.742Z,0.51
2022-12-16T01:28:49.255Z,0.49
2022-12-16T01:31:19.084Z,0.47
2022-12-16T01:33:47.228Z,0.48
2022-12-16T01:36:14.372Z,0.48
2022-12-16T01:38:44.452Z,0.51
2022-12-16T01:41:15.425Z,0.49
2022-12-16T01:43:45.485Z,0.41
2022-12-16T01:46:12.561Z,0.37
2022-12-16T01:49:01.359Z,0.36
2022-12-16T01:51:48.841Z,0.34
2022-12-16T01:54:26.770Z,0.36
2022-12-16T01:57:07.177Z,0.35
2022-12-16T01:59:39.235Z,0.36
2022-12-16T02:02:06.949Z,0.35
2022-12-16T02:04:34.305Z,0.30
2022-12-16T02:07:01.984Z,0.20
2022-12-16T02:09:29.303Z,0.16
2022-12-16T02:12:41.429Z,0.09
2022-12-16T02:15:41.331Z,0.09
2022-12-16T02:18:48.660Z,0.08
2022-12-16T02:21:46.006Z,0.07
2022-12-16T02:24:40.872Z,0.09
2022-12-16T02:27:30.254Z,0.10
2022-12-16T02:30:08.744Z,0.09
2022-12-16T02:33:03.168Z,0.07
2022-12-16T02:36:26.107Z,0.08
2022-12-16T02:39:17.081Z,0.07
2022-12-16T02:41:56.566Z,0.04
2022-12-16T02:44:45.429Z,0.05
2022-12-16T02:47:12.866Z,0.04
2022-12-16T02:49:50.829Z,0.06
2022-12-16T02:52:23.483Z,0.05
2022-12-16T02:55:01.778Z,0.05
2022-12-16T02:58:10.781Z,0.04
2022-12-16T03:01:15.144Z,0.02
2022-12-16T03:04:22.614Z,0.03
2022-12-16T03:06:52.618Z,0.04
2022-12-16T03:09:28.616Z,0.03
2022-12-16T03:11:57.759Z,0.03
2022-12-16T03:14:32.239Z,0.05
2022-12-16T03:17:00.428Z,0.05
2022-12-16T03:19:30.326Z,0.07
2022-12-16T03:22:14.210Z,0.05
2022-12-16T03:24:42.152Z,0.04
2022-12-16T03:27:55.332Z,0.04
2022-12-16T03:30:36.192Z,0.05
2022-12-16T03:33:31.576Z,0.03
2022-12-16T03:36:17.016Z,0.06
2022-12-16T03:38:47.057Z,0.07
2022-12-16T03:41:18.554Z,0.07
2022-12-16T03:43:46.650Z,0.05
2022-12-16T03:46:14.749Z,0.04
2022-12-16T03:48:51.529Z,0.08
2022-12-16T03:51:20.659Z,0.08
2022-12-16T03:53:47.814Z,0.08
2022-12-16T03:56:15.018Z,0.07
2022-12-16T03:58:42.394Z,0.07
2022-12-16T04:01:10.997Z,0.13
2022-12-16T04:03:38.838Z,0.10
2022-12-16T04:06:06.423Z,0.15
2022-12-16T04:08:33.627Z,0.20
2022-12-16T04:11:19.644Z,0.19
2022-12-16T04:14:05.392Z,0.16
2022-12-16T04:16:51.491Z,0.18
2022-12-16T04:19:43.047Z,0.20
2022-12-16T04:22:48.725Z,0.19
2022-12-16T04:25:22.979Z,0.20
2022-12-16T04:27:50.399Z,0.19
2022-12-16T04:30:20.755Z,0.19
2022-12-16T04:33:12.173Z,0.21
2022-12-16T04:35:58.165Z,0.22
2022-12-16T04:38:44.854Z,0.22
2022-12-16T04:41:30.920Z,0.24
2022-12-16T04:44:17.089Z,0.24
2022-12-16T04:47:02.999Z,0.23
2022-12-16T04:49:48.541Z,0.26
2022-12-16T04:52:35.080Z,0.26
2022-12-16T04:55:21.187Z,0.27
2022-12-16T04:58:16.069Z,0.29
2022-12-16T05:01:03.632Z,0.29
2022-12-16T05:03:50.173Z,0.30
2022-12-16T05:06:36.614Z,0.31
2022-12-16T05:09:24.740Z,0.32
2022-12-16T05:12:10.809Z,0.34
2022-12-16T05:14:56.424Z,0.35
2022-12-16T05:17:42.934Z,0.34
2022-12-16T05:20:29.560Z,0.35
2022-12-16T05:23:16.136Z,0.36
2022-12-16T05:26:02.141Z,0.37
2022-12-16T05:28:48.108Z,0.36
2022-12-16T05:31:34.104Z,0.39
2022-12-16T05:34:19.883Z,0.38
2022-12-16T05:37:05.775Z,0.38
2022-12-16T05:39:51.623Z,0.42
2022-12-16T05:42:37.550Z,0.43
2022-12-16T05:45:24.035Z,0.44
2022-12-16T05:48:09.919Z,0.44
2022-12-16T05:50:56.025Z,0.46
2022-12-16T05:53:41.589Z,0.47
2022-12-16T05:56:27.504Z,0.48
2022-12-16T05:59:13.408Z,0.52
2022-12-16T06:01:59.516Z,0.55
2022-12-16T06:04:45.269Z,0.53
2022-12-16T06:07:31.196Z,0.56
2022-12-16T06:10:17.066Z,0.55
2022-12-16T06:13:06.429Z,0.60
2022-12-16T06:15:52.494Z,0.64
2022-12-16T06:18:38.180Z,0.68
2022-12-16T06:21:24.365Z,0.68
2022-12-16T06:24:09.985Z,0.68
2022-12-16T06:26:55.871Z,0.68
2022-12-16T06:29:41.995Z,0.68
2022-12-16T06:32:27.564Z,0.70
2022-12-16T06:35:13.493Z,0.70
2022-12-16T06:37:59.316Z,0.69
2022-12-16T06:40:45.327Z,0.70
2022-12-16T06:43:31.674Z,0.69
2022-12-16T06:46:18.120Z,0.71
2022-12-16T06:49:04.041Z,0.70
2022-12-16T06:51:49.929Z,0.72
2022-12-16T06:54:35.948Z,0.72
2022-12-16T06:57:21.841Z,0.76
2022-12-16T07:00:08.017Z,0.76
2022-12-16T07:02:54.091Z,0.77
2022-12-16T07:05:40.308Z,0.74
2022-12-16T07:08:26.034Z,0.78
2022-12-16T07:11:16.521Z,0.77
2022-12-16T07:14:03.566Z,0.79
2022-12-16T07:16:54.333Z,0.78
2022-12-16T07:19:40.475Z,0.80
2022-12-16T07:22:26.494Z,0.82
2022-12-16T07:25:12.313Z,0.81
2022-12-16T07:27:58.333Z,0.84
2022-12-16T07:30:44.256Z,0.85
2022-12-16T07:33:30.486Z,0.85
2022-12-16T07:36:16.792Z,0.87
2022-12-16T07:39:02.607Z,0.93
2022-12-16T07:41:48.777Z,0.98
2022-12-16T07:44:34.796Z,0.95
2022-12-16T07:47:20.752Z,0.96
2022-12-16T07:50:06.900Z,1.01
2022-12-16T07:52:52.421Z,1.05
2022-12-16T07:55:41.432Z,1.04
2022-12-16T07:58:28.909Z,1.06
2022-12-16T08:01:14.817Z,1.12
2022-12-16T08:04:01.102Z,1.12
2022-12-16T08:06:47.251Z,1.15
2022-12-16T08:09:32.817Z,1.17
2022-12-16T08:12:18.943Z,1.22
2022-12-16T08:15:04.520Z,1.21
2022-12-16T08:17:50.509Z,1.28
2022-12-16T08:20:38.694Z,1.26
2022-12-16T08:23:24.720Z,1.28
2022-12-16T08:26:10.782Z,1.29
2022-12-16T08:29:02.027Z,1.33
2022-12-16T08:32:00.122Z,1.40
2022-12-16T08:34:46.044Z,1.37
2022-12-16T08:37:32.043Z,1.54
2022-12-16T08:40:34.918Z,1.56
2022-12-16T08:43:22.966Z,1.69
2022-12-16T08:46:12.785Z,1.63
2022-12-16T08:48:58.989Z,1.67
2022-12-16T08:51:44.582Z,1.67
2022-12-16T08:54:31.201Z,1.65
2022-12-16T08:57:17.417Z,1.64
2022-12-16T09:00:03.380Z,1.63
2022-12-16T09:02:49.365Z,1.65
2022-12-16T09:05:35.573Z,1.77
2022-12-16T09:08:23.503Z,1.81
2022-12-16T09:11:09.682Z,1.77
2022-12-16T09:13:55.200Z,1.80
2022-12-16T09:16:41.172Z,1.82
2022-12-16T09:19:28.821Z,1.86
2022-12-16T09:22:14.823Z,1.91
2022-12-16T09:25:00.719Z,1.98
2022-12-16T09:27:46.880Z,2.11
2022-12-16T09:30:32.870Z,2.14
2022-12-16T09:33:21.381Z,2.00
2022-12-16T09:36:07.386Z,1.97
2022-12-16T09:38:53.196Z,1.98
2022-12-16T09:42:03.837Z,1.98
2022-12-16T09:45:37.421Z,1.99
2022-12-16T09:48:44.058Z,2.01
2022-12-16T09:51:31.852Z,2.02
2022-12-16T09:54:20.345Z,2.05
2022-12-16T09:57:07.291Z,2.13
2022-12-16T10:00:00.305Z,2.10
2022-12-16T10:02:46.617Z,2.12
2022-12-16T10:05:38.106Z,2.13
2022-12-16T10:08:40.297Z,2.16
2022-12-16T10:12:08.324Z,2.10
2022-12-16T10:15:09.085Z,2.14
2022-12-16T10:18:02.911Z,2.17
2022-12-16T10:21:30.254Z,2.17
2022-12-16T10:24:59.757Z,2.24
2022-12-16T10:28:07.383Z,2.18
2022-12-16T10:30:56.928Z,2.10
2022-12-16T10:33:47.438Z,2.10
2022-12-16T10:36:42.247Z,2.13
2022-12-16T10:39:57.040Z,2.11
2022-12-16T10:42:55.687Z,2.10
2022-12-16T10:45:55.433Z,2.04
2022-12-16T10:48:55.118Z,2.04
2022-12-16T10:51:47.119Z,2.08
2022-12-16T10:54:42.648Z,2.14
2022-12-16T10:57:52.080Z,2.17
2022-12-16T11:01:04.920Z,2.17
2022-12-16T11:03:54.634Z,2.09
2022-12-16T11:06:58.360Z,2.06
2022-12-16T11:09:51.071Z,2.02
2022-12-16T11:12:50.897Z,2.01
2022-12-16T11:15:41.922Z,2.03
2022-12-16T11:18:37.993Z,2.08
2022-12-16T11:21:37.914Z,2.11
2022-12-16T11:24:35.224Z,2.21
2022-12-16T11:27:42.457Z,2.30
2022-12-16T11:30:37.720Z,2.08
2022-12-16T11:33:42.376Z,1.99
2022-12-16T11:36:42.213Z,2.01
2022-12-16T11:39:36.748Z,2.02
2022-12-16T11:42:25.388Z,1.96
2022-12-16T11:45:17.549Z,1.89
2022-12-16T11:48:50.496Z,1.90
2022-12-16T11:51:37.805Z,1.89
2022-12-16T11:54:42.599Z,1.84
2022-12-16T11:58:06.407Z,1.86
2022-12-16T12:01:04.328Z,1.91
2022-12-16T12:04:01.039Z,1.90
2022-12-16T12:07:33.957Z,1.95
2022-12-16T12:11:14.661Z,2.00
2022-12-16T12:14:50.023Z,1.97
2022-12-16T12:18:01.344Z,2.03
2022-12-16T12:21:17.210Z,2.06
2022-12-16T12:25:15.325Z,2.04
2022-12-16T12:28:55.785Z,2.17
2022-12-16T12:32:59.615Z,2.20
2022-12-16T12:36:23.400Z,2.20
2022-12-16T12:39:39.162Z,2.24
2022-12-16T12:43:03.994Z,2.27
2022-12-16T12:46:27.829Z,2.21
2022-12-16T12:49:41.257Z,2.30
2022-12-16T12:53:11.977Z,2.26
2022-12-16T12:56:29.801Z,2.32
2022-12-16T12:59:23.225Z,2.45
2022-12-16T13:02:12.368Z,2.40
2022-12-16T13:04:59.113Z,2.46
2022-12-16T13:07:45.164Z,2.50
2022-12-16T13:10:42.893Z,2.57
2022-12-16T13:13:34.920Z,2.60
2022-12-16T13:16:29.424Z,2.48
2022-12-16T13:19:49.389Z,2.48
2022-12-16T13:22:55.846Z,2.45
2022-12-16T13:26:09.546Z,2.41
2022-12-16T13:29:00.125Z,2.50
2022-12-16T13:31:49.073Z,2.60
2022-12-16T13:34:34.610Z,2.57
2022-12-16T13:37:28.515Z,2.58
2022-12-16T13:40:41.550Z,2.61
2022-12-16T13:44:11.580Z,2.53
2022-12-16T13:47:14.165Z,2.45
2022-12-16T13:50:09.042Z,2.48
2022-12-16T13:53:16.522Z,2.46
2022-12-16T13:56:15.301Z,2.51
2022-12-16T13:59:12.493Z,2.59
2022-12-16T14:02:21.609Z,2.58
2022-12-16T14:05:12.983Z,2.60
2022-12-16T14:07:59.924Z,2.71
2022-12-16T14:10:57.052Z,2.72
2022-12-16T14:13:49.067Z,2.68
2022-12-16T14:17:03.000Z,2.65
2022-12-16T14:20:35.702Z,2.61
2022-12-16T14:24:13.102Z,2.62
2022-12-16T14:26:59.110Z,2.68
2022-12-16T14:29:50.547Z,2.66
2022-12-16T14:32:52.658Z,2.71
2022-12-16T14:35:43.916Z,2.73
2022-12-16T14:38:47.585Z,2.72
2022-12-16T14:41:44.004Z,2.76
2022-12-16T14:44:43.934Z,2.81
2022-12-16T14:47:40.806Z,2.84
2022-12-16T14:50:48.289Z,2.80
2022-12-16T14:53:41.864Z,2.80
2022-12-16T14:56:41.695Z,2.79
2022-12-16T14:59:34.125Z,2.72
2022-12-16T15:02:53.266Z,2.73
2022-12-16T15:05:55.543Z,2.71
2022-12-16T15:08:43.052Z,2.66
2022-12-16T15:11:34.918Z,2.67
2022-12-16T15:14:22.032Z,2.62
2022-12-16T15:17:10.716Z,2.67
2022-12-16T15:20:09.717Z,2.64
2022-12-16T15:22:57.041Z,2.69
2022-12-16T15:25:45.948Z,2.70
2022-12-16T15:29:01.377Z,2.72
2022-12-16T15:32:01.377Z,2.67
2022-12-16T15:35:07.269Z,2.67
2022-12-16T15:38:04.534Z,2.68
2022-12-16T15:40:52.696Z,2.67
2022-12-16T15:43:57.364Z,2.63
2022-12-16T15:46:48.617Z,2.66
2022-12-16T15:50:03.494Z,2.68
2022-12-16T15:53:02.964Z,2.70
2022-12-16T15:56:13.957Z,2.70
2022-12-16T15:58:59.986Z,2.72
2022-12-16T16:01:47.284Z,2.73
2022-12-16T16:04:48.579Z,2.73
2022-12-16T16:07:42.254Z,2.78
2022-12-16T16:10:43.647Z,2.76
2022-12-16T16:13:29.796Z,2.77
2022-12-16T16:16:15.937Z,2.77
2022-12-16T16:19:02.574Z,2.77
2022-12-16T16:21:49.331Z,2.81
2022-12-16T16:24:35.137Z,2.78
2022-12-16T16:27:24.750Z,2.76
2022-12-16T16:30:10.846Z,2.73
2022-12-16T16:32:56.489Z,2.78
2022-12-16T16:35:42.515Z,2.80
2022-12-16T16:38:32.109Z,2.82
2022-12-16T16:41:18.339Z,2.81
2022-12-16T16:44:04.123Z,2.83
2022-12-16T16:46:59.249Z,2.79
2022-12-16T16:49:59.011Z,2.81
2022-12-16T16:52:46.721Z,2.81
2022-12-16T16:56:02.171Z,2.85
2022-12-16T16:58:52.566Z,2.87
2022-12-16T17:01:38.956Z,2.85
2022-12-16T17:04:24.982Z,2.81
2022-12-16T17:07:11.029Z,2.84
2022-12-16T17:09:57.030Z,2.86
2022-12-16T17:12:48.116Z,2.87
2022-12-16T17:15:44.348Z,2.80
2022-12-16T17:18:30.502Z,2.75
2022-12-16T17:21:16.159Z,2.67
2022-12-16T17:24:02.314Z,2.64
2022-12-16T17:26:47.743Z,2.60
2022-12-16T17:29:44.540Z,2.55
2022-12-16T17:32:31.400Z,2.47
2022-12-16T17:35:18.240Z,2.51
2022-12-16T17:38:04.308Z,2.57
2022-12-16T17:40:50.182Z,2.57
2022-12-16T17:43:36.531Z,2.60
2022-12-16T17:46:28.877Z,2.60
2022-12-16T17:49:17.615Z,2.68
2022-12-16T17:52:03.612Z,2.70
2022-12-16T17:54:49.257Z,2.70
2022-12-16T17:57:35.036Z,2.64
2022-12-16T18:00:21.515Z,2.62
2022-12-16T18:03:07.680Z,2.68
2022-12-16T18:05:53.751Z,2.76
2022-12-16T18:08:40.954Z,2.80
2022-12-16T18:11:27.095Z,2.79
2022-12-16T18:14:12.713Z,2.80
2022-12-16T18:16:58.706Z,2.83
2022-12-16T18:19:44.866Z,2.85
2022-12-16T18:22:30.593Z,2.84
2022-12-16T18:25:16.684Z,2.77
2022-12-16T18:28:02.523Z,2.70
2022-12-16T18:30:48.593Z,2.68
2022-12-16T18:33:34.961Z,2.67
2022-12-16T18:36:20.960Z,2.69
2022-12-16T18:39:07.136Z,2.71
2022-12-16T18:42:00.800Z,2.76
2022-12-16T18:44:46.781Z,2.76
2022-12-16T18:47:32.794Z,2.84
2022-12-16T18:50:23.675Z,2.82
2022-12-16T18:53:13.051Z,2.83
2022-12-16T18:55:59.240Z,2.85
2022-12-16T18:58:52.298Z,2.86
2022-12-16T19:01:38.571Z,2.88
2022-12-16T19:04:24.379Z,2.89
2022-12-16T19:07:10.415Z,2.91
2022-12-16T19:09:56.321Z,2.93
2022-12-16T19:12:42.396Z,2.94
2022-12-16T19:15:28.817Z,2.95
2022-12-16T19:18:14.724Z,2.97
2022-12-16T19:21:00.779Z,2.97
2022-12-16T19:23:46.640Z,2.98
2022-12-16T19:26:32.553Z,2.98
2022-12-16T19:29:18.631Z,2.98
2022-12-16T19:32:04.306Z,3.00
2022-12-16T19:34:50.569Z,3.01
2022-12-16T19:37:37.891Z,3.03
2022-12-16T19:40:25.040Z,3.03
2022-12-16T19:43:10.743Z,3.03
2022-12-16T19:45:56.958Z,3.04
2022-12-16T19:48:42.887Z,3.03
2022-12-16T19:51:28.940Z,3.03
2022-12-16T19:54:14.792Z,3.02
2022-12-16T19:57:00.888Z,3.02
2022-12-16T19:59:46.897Z,3.01
2022-12-16T20:02:33.214Z,2.95
2022-12-16T20:05:19.058Z,2.94
2022-12-16T20:08:05.269Z,2.87
2022-12-16T20:10:51.735Z,2.85
2022-12-16T20:13:37.994Z,2.86
2022-12-16T20:16:27.344Z,2.90
2022-12-16T20:19:14.378Z,2.89
2022-12-16T20:22:06.255Z,2.94
2022-12-16T20:24:56.275Z,2.95
2022-12-16T20:27:43.100Z,2.95
2022-12-16T20:30:30.211Z,2.96
2022-12-16T20:33:16.241Z,3.01
2022-12-16T20:36:02.291Z,3.05
2022-12-16T20:38:48.320Z,3.02
2022-12-16T20:41:34.120Z,2.98
2022-12-16T20:44:20.257Z,2.94
2022-12-16T20:47:05.811Z,2.87
2022-12-16T20:49:51.902Z,2.79
2022-12-16T20:52:37.985Z,2.64
2022-12-16T20:55:24.656Z,2.57
2022-12-16T20:58:11.206Z,2.50
2022-12-16T21:00:57.906Z,2.52
2022-12-16T21:03:44.652Z,2.53
2022-12-16T21:06:31.321Z,2.56
2022-12-16T21:09:17.055Z,2.57
2022-12-16T21:12:03.024Z,2.58
2022-12-16T21:14:49.018Z,2.64
2022-12-16T21:17:34.990Z,2.72
2022-12-16T21:20:21.047Z,2.71
2022-12-16T21:23:07.157Z,2.74
2022-12-16T21:25:53.031Z,2.77
2022-12-16T21:28:41.759Z,2.72
2022-12-16T21:31:27.489Z,2.68
2022-12-16T21:34:13.379Z,2.64
2022-12-16T21:36:59.274Z,2.60
2022-12-16T21:39:45.334Z,2.65
2022-12-16T21:42:35.089Z,2.67
2022-12-16T21:45:23.461Z,2.68
2022-12-16T21:48:13.253Z,2.68
2022-12-16T21:50:59.204Z,2.67
2022-12-16T21:53:45.402Z,2.70
2022-12-16T21:56:31.285Z,2.73
2022-12-16T21:59:17.236Z,2.77
2022-12-16T22:02:04.288Z,2.82
2022-12-16T22:04:50.496Z,2.83
2022-12-16T22:07:37.043Z,2.87
2022-12-16T22:10:24.156Z,2.83
2022-12-16T22:13:30.170Z,2.84
2022-12-16T22:16:18.752Z,2.88
2022-12-16T22:19:04.852Z,2.88
2022-12-16T22:21:50.424Z,2.85
2022-12-16T22:24:36.485Z,2.84
2022-12-16T22:27:22.562Z,2.88
2022-12-16T22:30:08.183Z,2.90
2022-12-16T22:32:54.214Z,2.91
2022-12-16T22:35:42.345Z,2.91
2022-12-16T22:38:28.432Z,2.92
2022-12-16T22:41:16.433Z,2.91
2022-12-16T22:44:02.931Z,2.92
2022-12-16T22:46:49.557Z,2.95
2022-12-16T22:49:35.590Z,2.96
2022-12-16T22:52:22.166Z,2.97
2022-12-16T22:55:08.205Z,2.97
2022-12-16T22:57:54.263Z,2.97
2022-12-16T23:00:40.213Z,2.96
2022-12-16T23:03:26.248Z,2.99
2022-12-16T23:06:12.277Z,3.05
2022-12-16T23:08:58.185Z,3.08
2022-12-16T23:11:54.024Z,3.11
2022-12-16T23:14:43.327Z,3.13
2022-12-16T23:17:30.925Z,3.16
2022-12-16T23:20:17.007Z,3.23
2022-12-16T23:23:02.875Z,3.17
2022-12-16T23:25:48.823Z,3.12
2022-12-16T23:28:34.774Z,3.07
2022-12-16T23:31:20.907Z,2.93
2022-12-16T23:34:06.560Z,2.94
2022-12-16T23:36:52.374Z,2.82
2022-12-16T23:39:39.604Z,2.71
2022-12-16T23:42:25.511Z,2.60
2022-12-16T23:45:11.313Z,2.56
2022-12-16T23:47:57.696Z,2.64
2022-12-16T23:50:43.778Z,2.78
2022-12-16T23:53:30.225Z,2.79
2022-12-16T23:56:20.396Z,2.78
2022-12-16T23:59:07.139Z,2.76
